createdAt,value
2023-05-11T00:01:53.153Z,5.80
2023-05-11T00:04:26.659Z,4.62
2023-05-11T00:07:00.647Z,6.85
2023-05-11T00:09:35.571Z,6.95
2023-05-11T00:12:10.028Z,5.67
2023-05-11T00:14:47.164Z,6.65
2023-05-11T00:17:23.883Z,5.60
2023-05-11T00:19:59.750Z,6.95
2023-05-11T00:22:39.866Z,6.15
2023-05-11T00:25:20.979Z,4.97
2023-05-11T00:27:57.909Z,5.90
2023-05-11T00:30:31.789Z,6.15
2023-05-11T00:33:07.354Z,6.87
2023-05-11T00:35:41.342Z,5.50
2023-05-11T00:38:17.714Z,5.35
2023-05-11T00:40:55.545Z,6.17
2023-05-11T00:43:36.143Z,5.95
2023-05-11T00:46:13.550Z,6.42
2023-05-11T00:48:50.609Z,5.75
2023-05-11T00:51:25.274Z,6.08
2023-05-11T00:53:59.632Z,5.87
2023-05-11T00:56:34.312Z,6.42
2023-05-11T00:59:11.546Z,5.22
2023-05-11T01:01:52.363Z,6.28
2023-05-11T01:04:38.708Z,5.05
2023-05-11T01:07:20.052Z,5.37
2023-05-11T01:13:44.662Z,5.80
2023-05-11T01:16:39.356Z,5.70
2023-05-11T01:20:30.515Z,4.67
2023-05-11T01:23:47.572Z,5.03
2023-05-11T01:30:37.029Z,5.12
2023-05-11T01:33:37.426Z,5.58
2023-05-11T01:36:32.401Z,5.47
2023-05-11T01:40:00.812Z,4.67
2023-05-11T01:42:44.815Z,5.08
2023-05-11T01:45:26.734Z,5.30
2023-05-11T01:48:06.688Z,4.55
2023-05-11T01:50:45.208Z,5.20
2023-05-11T01:53:26.623Z,4.97
2023-05-11T01:56:09.247Z,5.40
2023-05-11T02:01:39.272Z,4.80
2023-05-11T02:04:22.047Z,5.12
2023-05-11T02:07:08.965Z,6.40
2023-05-11T02:09:41.040Z,5.17
2023-05-11T02:12:22.045Z,4.65
2023-05-11T02:15:17.088Z,5.53
2023-05-11T02:17:54.387Z,5.92
2023-05-11T02:20:34.715Z,4.95
2023-05-11T02:23:28.254Z,4.67
2023-05-11T02:26:03.312Z,4.75
2023-05-11T02:28:44.065Z,4.95
2023-05-11T02:31:30.843Z,4.35
2023-05-11T02:34:24.900Z,4.47
2023-05-11T02:37:21.056Z,5.08
2023-05-11T02:40:40.958Z,4.97
2023-05-11T02:43:37.832Z,5.17
2023-05-11T02:46:18.215Z,5.05
2023-05-11T02:49:03.980Z,4.80
2023-05-11T02:51:50.034Z,4.65
2023-05-11T02:54:33.393Z,5.53
2023-05-11T02:57:14.046Z,5.90
2023-05-11T03:01:16.273Z,8.48
2023-05-11T03:03:50.168Z,6.67
2023-05-11T03:06:23.832Z,7.12
2023-05-11T03:08:57.529Z,7.20
2023-05-11T03:11:32.295Z,4.87
2023-05-11T03:14:06.864Z,5.50
2023-05-11T03:16:41.576Z,5.17
2023-05-11T03:19:16.318Z,5.22
2023-05-11T03:21:51.132Z,5.85
2023-05-11T03:24:25.178Z,5.72
2023-05-11T03:27:00.716Z,6.10
2023-05-11T03:29:37.340Z,5.65
2023-05-11T03:32:12.246Z,6.65
2023-05-11T03:34:46.123Z,5.62
2023-05-11T03:37:21.780Z,5.08
2023-05-11T03:39:58.286Z,5.58
2023-05-11T03:42:32.444Z,5.43
2023-05-11T03:45:09.673Z,5.67
2023-05-11T03:47:44.695Z,6.20
2023-05-11T03:50:19.103Z,5.10
2023-05-11T03:52:53.789Z,4.85
2023-05-11T03:55:27.899Z,4.83
2023-05-11T03:58:03.613Z,4.90
2023-05-11T04:00:37.612Z,4.80
2023-05-11T04:03:12.646Z,4.83
2023-05-11T04:05:46.290Z,4.80
2023-05-11T04:08:19.805Z,4.87
2023-05-11T04:10:53.154Z,4.75
2023-05-11T04:13:27.437Z,4.37
2023-05-11T04:16:01.188Z,5.37
2023-05-11T04:18:36.686Z,3.62
2023-05-11T04:21:11.516Z,5.12
2023-05-11T04:23:44.719Z,5.05
2023-05-11T04:26:18.061Z,5.03
2023-05-11T04:28:51.264Z,4.85
2023-05-11T04:31:30.046Z,4.42
2023-05-11T04:34:03.770Z,5.40
2023-05-11T04:36:42.225Z,5.03
2023-05-11T04:41:48.489Z,4.50
2023-05-11T04:44:21.942Z,4.50
2023-05-11T04:47:00.892Z,3.87
2023-05-11T04:49:34.178Z,4.72
2023-05-11T04:54:47.866Z,5.20
2023-05-11T04:57:22.256Z,4.00
2023-05-11T05:00:06.046Z,4.70
2023-05-11T05:02:45.542Z,4.60
2023-05-11T05:08:18.831Z,4.20
2023-05-11T05:10:52.690Z,3.90
2023-05-11T05:13:34.468Z,4.60
2023-05-11T05:16:08.213Z,4.62
2023-05-11T05:18:41.730Z,4.40
2023-05-11T05:21:16.754Z,3.92
2023-05-11T05:23:51.325Z,3.70
2023-05-11T05:26:24.736Z,3.42
2023-05-11T05:28:58.626Z,3.50
2023-05-11T05:31:36.288Z,3.98
2023-05-11T05:34:10.063Z,3.25
2023-05-11T05:36:44.268Z,3.77
2023-05-11T05:39:17.508Z,3.37
2023-05-11T05:41:51.530Z,4.37
2023-05-11T05:44:25.949Z,4.17
2023-05-11T05:47:00.343Z,3.25
2023-05-11T05:49:36.397Z,2.98
2023-05-11T05:52:12.669Z,2.77
2023-05-11T05:54:46.738Z,2.58
2023-05-11T05:57:20.075Z,2.90
2023-05-11T05:59:54.146Z,3.08
2023-05-11T06:02:28.208Z,2.85
2023-05-11T06:05:01.719Z,2.60
2023-05-11T06:07:36.953Z,2.90
2023-05-11T06:10:11.364Z,2.65
2023-05-11T06:12:44.713Z,2.22
2023-05-11T06:15:18.358Z,2.27
2023-05-11T06:17:55.594Z,1.80
2023-05-11T06:20:28.894Z,2.12
2023-05-11T06:23:05.213Z,2.72
2023-05-11T06:25:39.747Z,2.50
2023-05-11T06:28:15.076Z,2.33
2023-05-11T06:30:52.143Z,3.10
2023-05-11T06:33:26.317Z,2.15
2023-05-11T06:36:00.252Z,2.00
2023-05-11T06:38:34.537Z,2.20
2023-05-11T06:41:10.087Z,2.05
2023-05-11T06:43:43.476Z,1.87
2023-05-11T06:46:27.785Z,1.75
2023-05-11T06:49:01.511Z,1.70
2023-05-11T06:51:35.641Z,2.27
2023-05-11T06:54:09.428Z,2.67
2023-05-11T06:56:43.139Z,3.33
2023-05-11T06:59:17.575Z,1.70
2023-05-11T07:01:51.071Z,1.60
2023-05-11T07:04:24.686Z,1.70
2023-05-11T07:06:58.263Z,1.50
2023-05-11T07:09:31.697Z,1.15
2023-05-11T07:12:05.072Z,1.35
2023-05-11T07:14:57.413Z,1.70
2023-05-11T07:17:34.480Z,1.70
2023-05-11T07:20:10.317Z,1.92
2023-05-11T07:22:48.550Z,1.70
2023-05-11T07:25:22.105Z,1.32
2023-05-11T07:27:56.238Z,1.92
2023-05-11T07:30:33.291Z,1.70
2023-05-11T07:33:08.317Z,1.42
2023-05-11T07:35:41.724Z,1.17
2023-05-11T07:38:15.231Z,1.75
2023-05-11T07:40:48.640Z,1.80
2023-05-11T07:43:22.259Z,1.30
2023-05-11T07:45:56.000Z,1.17
2023-05-11T07:48:29.361Z,1.57
2023-05-11T07:51:03.334Z,1.40
2023-05-11T07:53:39.101Z,1.60
2023-05-11T07:56:12.455Z,1.57
2023-05-11T07:58:46.435Z,1.90
2023-05-11T08:01:19.839Z,1.40
2023-05-11T08:03:53.334Z,1.72
2023-05-11T08:06:26.757Z,1.85
2023-05-11T08:08:59.992Z,2.47
2023-05-11T08:11:33.455Z,1.57
2023-05-11T08:14:06.905Z,1.60
2023-05-11T08:16:40.733Z,2.08
2023-05-11T08:19:14.198Z,1.60
2023-05-11T08:21:47.469Z,2.77
2023-05-11T08:24:20.797Z,2.05
2023-05-11T08:26:54.105Z,1.47
2023-05-11T08:29:30.094Z,1.57
2023-05-11T08:32:03.688Z,1.45
2023-05-11T08:34:37.417Z,1.52
2023-05-11T08:37:13.107Z,1.10
2023-05-11T08:39:47.738Z,1.47
2023-05-11T08:42:21.974Z,1.37
2023-05-11T08:44:59.538Z,1.15
2023-05-11T08:47:35.056Z,1.15
2023-05-11T08:50:09.775Z,0.98
2023-05-11T08:52:45.272Z,1.35
2023-05-11T08:55:19.236Z,1.00
2023-05-11T08:57:54.685Z,1.30
2023-05-11T09:00:29.388Z,0.98
2023-05-11T09:03:03.788Z,1.22
2023-05-11T09:05:38.883Z,1.12
2023-05-11T09:08:14.637Z,1.17
2023-05-11T09:10:48.070Z,1.40
2023-05-11T09:13:21.586Z,1.40
2023-05-11T09:15:55.177Z,1.52
2023-05-11T09:18:29.247Z,1.40
2023-05-11T09:21:03.638Z,1.55
2023-05-11T09:23:36.976Z,1.12
2023-05-11T09:26:17.183Z,1.60
2023-05-11T09:29:03.018Z,1.40
2023-05-11T09:31:40.951Z,1.57
2023-05-11T09:34:19.739Z,1.40
2023-05-11T09:36:54.224Z,1.37
2023-05-11T09:39:42.045Z,1.50
2023-05-11T09:42:17.554Z,1.17
2023-05-11T09:44:51.005Z,1.07
2023-05-11T09:47:24.469Z,0.90
2023-05-11T09:49:57.671Z,1.17
2023-05-11T09:52:31.840Z,1.02
2023-05-11T09:55:08.709Z,1.17
2023-05-11T09:57:42.151Z,1.22
2023-05-11T10:00:18.908Z,1.30
2023-05-11T10:03:03.805Z,0.88
2023-05-11T10:05:39.013Z,1.05
2023-05-11T10:08:12.487Z,1.62
2023-05-11T10:10:46.546Z,1.10
2023-05-11T10:13:20.046Z,0.78
2023-05-11T10:15:55.914Z,1.10
2023-05-11T10:18:29.716Z,1.07
2023-05-11T10:21:03.686Z,0.90
2023-05-11T10:23:37.354Z,1.27
2023-05-11T10:26:12.612Z,1.20
2023-05-11T10:28:45.855Z,1.40
2023-05-11T10:31:21.222Z,0.85
2023-05-11T10:33:55.168Z,1.12
2023-05-11T10:36:29.342Z,0.93
2023-05-11T10:39:09.179Z,0.88
2023-05-11T10:41:54.589Z,0.60
2023-05-11T10:44:54.933Z,1.70
2023-05-11T10:47:51.610Z,1.57
2023-05-11T10:50:36.786Z,1.30
2023-05-11T10:53:19.858Z,1.35
2023-05-11T10:56:17.456Z,1.32
2023-05-11T10:59:16.530Z,3.12
2023-05-11T11:01:54.968Z,1.75
2023-05-11T11:04:44.119Z,0.88
2023-05-11T11:07:18.771Z,1.90
2023-05-11T11:10:00.519Z,0.90
2023-05-11T11:12:35.746Z,1.10
2023-05-11T11:15:13.780Z,1.37
2023-05-11T11:17:47.540Z,1.70
2023-05-11T11:20:45.093Z,1.50
2023-05-11T11:23:45.798Z,1.50
2023-05-11T11:26:21.886Z,1.57
2023-05-11T11:29:13.068Z,1.65
2023-05-11T11:31:46.336Z,1.55
2023-05-11T11:34:40.106Z,1.25
2023-05-11T11:37:13.724Z,1.55
2023-05-11T11:40:14.009Z,1.27
2023-05-11T11:42:42.144Z,1.70
2023-05-11T11:45:33.014Z,1.85
2023-05-11T11:48:14.026Z,1.75
2023-05-11T11:50:49.190Z,1.30
2023-05-11T11:54:15.190Z,2.00
2023-05-11T11:56:48.704Z,1.98
2023-05-11T11:59:24.940Z,1.92
2023-05-11T12:02:00.684Z,1.90
2023-05-11T12:05:07.944Z,1.60
2023-05-11T12:07:44.970Z,2.27
2023-05-11T12:10:19.383Z,1.37
2023-05-11T12:12:59.927Z,2.30
2023-05-11T12:15:33.279Z,2.00
2023-05-11T12:18:07.129Z,2.40
2023-05-11T12:20:40.657Z,3.08
2023-05-11T12:23:15.018Z,2.20
2023-05-11T12:25:49.752Z,2.15
2023-05-11T12:28:23.305Z,1.98
2023-05-11T12:31:00.602Z,1.95
2023-05-11T12:33:33.871Z,2.02
2023-05-11T12:36:11.452Z,2.12
2023-05-11T12:38:47.940Z,2.80
2023-05-11T12:41:23.379Z,2.22
2023-05-11T12:43:57.147Z,2.08
2023-05-11T12:46:30.509Z,2.37
2023-05-11T12:49:09.610Z,2.62
2023-05-11T12:51:50.601Z,3.33
2023-05-11T12:54:30.932Z,2.27
2023-05-11T12:57:08.464Z,3.90
2023-05-11T13:02:19.641Z,2.08
2023-05-11T13:04:52.718Z,1.82
2023-05-11T13:07:31.418Z,2.22
2023-05-11T13:10:04.634Z,1.72
2023-05-11T13:12:38.244Z,2.27
2023-05-11T13:15:13.726Z,2.37
2023-05-11T13:17:47.591Z,1.50
2023-05-11T13:20:26.849Z,1.80
2023-05-11T13:23:10.591Z,2.08
2023-05-11T13:25:55.099Z,1.67
2023-05-11T13:28:28.676Z,1.10
2023-05-11T13:31:04.959Z,1.90
2023-05-11T13:33:40.585Z,2.47
2023-05-11T13:36:15.236Z,2.00
2023-05-11T13:38:51.643Z,2.55
2023-05-11T13:41:24.765Z,2.55
2023-05-11T13:43:59.075Z,2.55
2023-05-11T13:46:32.349Z,2.67
2023-05-11T13:49:11.816Z,2.52
2023-05-11T13:51:45.163Z,2.22
2023-05-11T13:54:18.485Z,2.20
2023-05-11T13:56:51.902Z,2.10
2023-05-11T13:59:25.304Z,2.40
2023-05-11T14:01:58.798Z,1.85
2023-05-11T14:04:32.549Z,2.67
2023-05-11T14:07:06.620Z,1.77
2023-05-11T14:09:43.303Z,1.95
2023-05-11T14:12:15.588Z,2.42
2023-05-11T14:14:48.779Z,2.00
2023-05-11T14:17:22.070Z,1.80
2023-05-11T14:19:55.508Z,1.72
2023-05-11T14:22:33.783Z,1.62
2023-05-11T14:25:13.236Z,2.08
2023-05-11T14:27:46.799Z,1.60
2023-05-11T14:30:20.270Z,1.00
2023-05-11T14:32:58.665Z,1.70
2023-05-11T14:35:31.902Z,1.35
2023-05-11T14:38:05.718Z,1.90
2023-05-11T14:40:38.979Z,1.98
2023-05-11T14:43:12.903Z,2.10
2023-05-11T14:45:46.312Z,1.37
2023-05-11T14:48:21.313Z,1.57
2023-05-11T14:50:55.053Z,1.50
2023-05-11T14:53:31.933Z,1.77
2023-05-11T14:56:15.223Z,1.75
2023-05-11T14:58:52.473Z,1.77
2023-05-11T15:01:28.145Z,2.08
2023-05-11T15:04:02.370Z,2.27
2023-05-11T15:06:39.367Z,1.50
2023-05-11T15:09:13.063Z,1.37
2023-05-11T15:11:49.217Z,1.80
2023-05-11T15:14:23.012Z,1.52
2023-05-11T15:17:00.582Z,1.30
2023-05-11T15:19:36.344Z,1.50
2023-05-11T15:22:10.663Z,1.10
2023-05-11T15:24:49.201Z,1.50
2023-05-11T15:30:33.475Z,0.90
2023-05-11T15:33:06.833Z,1.10
2023-05-11T15:35:41.804Z,1.82
2023-05-11T15:38:14.943Z,0.75
2023-05-11T15:40:49.252Z,1.27
2023-05-11T15:43:22.309Z,1.05
2023-05-11T15:45:55.844Z,1.00
2023-05-11T15:48:29.077Z,1.07
2023-05-11T15:51:03.280Z,1.45
2023-05-11T15:53:37.585Z,1.15
2023-05-11T15:56:11.541Z,1.50
2023-05-11T15:58:46.186Z,1.17
2023-05-11T16:01:19.596Z,1.37
2023-05-11T16:03:53.024Z,1.32
2023-05-11T16:06:27.743Z,1.27
2023-05-11T16:09:01.316Z,1.62
2023-05-11T16:11:34.590Z,1.62
2023-05-11T16:14:10.044Z,1.05
2023-05-11T16:16:43.541Z,1.65
2023-05-11T16:19:19.435Z,1.20
2023-05-11T16:21:52.963Z,1.30
2023-05-11T16:24:45.101Z,1.40
2023-05-11T16:27:18.530Z,1.22
2023-05-11T16:29:52.436Z,1.00
2023-05-11T16:32:27.190Z,1.37
2023-05-11T16:35:02.971Z,1.60
2023-05-11T16:37:36.723Z,1.65
2023-05-11T16:40:12.988Z,0.90
2023-05-11T16:42:50.435Z,1.65
2023-05-11T16:45:33.884Z,0.90
2023-05-11T16:48:09.262Z,0.90
2023-05-11T16:50:44.897Z,1.00
2023-05-11T16:53:19.913Z,0.93
2023-05-11T16:55:53.732Z,1.02
2023-05-11T16:58:30.228Z,1.12
2023-05-11T17:01:03.291Z,1.30
2023-05-11T17:03:36.717Z,1.57
2023-05-11T17:06:14.186Z,1.30
2023-05-11T17:08:49.268Z,1.52
2023-05-11T17:11:23.788Z,3.20
2023-05-11T17:13:57.127Z,3.02
2023-05-11T17:16:30.424Z,3.20
2023-05-11T17:19:04.102Z,25.30
2023-05-11T17:21:39.974Z,31.50
2023-05-11T17:24:13.442Z,44.83
2023-05-11T17:26:48.551Z,13.08
2023-05-11T17:29:26.528Z,29.82
2023-05-11T17:31:59.892Z,11.83
2023-05-11T17:34:34.039Z,4.87
2023-05-11T17:37:17.395Z,3.27
2023-05-11T17:39:49.281Z,2.60
2023-05-11T17:42:25.333Z,2.75
2023-05-11T17:44:58.751Z,2.83
2023-05-11T17:47:39.968Z,2.25
2023-05-11T17:50:13.982Z,2.00
2023-05-11T17:52:50.670Z,3.05
2023-05-11T17:55:23.310Z,3.00
2023-05-11T17:57:56.737Z,4.08
2023-05-11T18:00:30.557Z,3.30
2023-05-11T18:03:06.946Z,3.30
2023-05-11T18:05:48.722Z,2.75
2023-05-11T18:08:15.302Z,3.92
2023-05-11T18:10:51.903Z,2.52
2023-05-11T18:13:26.504Z,3.83
2023-05-11T18:18:53.059Z,4.42
2023-05-11T18:21:31.782Z,2.47
2023-05-11T18:28:16.465Z,3.83
2023-05-11T18:30:51.627Z,3.50
2023-05-11T18:33:26.780Z,5.47
2023-05-11T18:53:03.349Z,3.40
2023-05-11T18:55:51.882Z,3.08
2023-05-11T19:09:02.461Z,2.17
2023-05-11T19:12:26.728Z,3.27
2023-05-11T19:18:23.091Z,2.60
2023-05-11T19:20:57.561Z,4.03
2023-05-11T19:23:32.104Z,3.25
2023-05-11T19:26:06.151Z,3.47
2023-05-11T19:28:41.280Z,3.12
2023-05-11T19:31:17.451Z,3.00
2023-05-11T19:33:52.632Z,3.20
2023-05-11T19:36:29.521Z,3.22
2023-05-11T19:39:04.648Z,4.00
2023-05-11T19:41:41.837Z,3.30
2023-05-11T19:44:16.720Z,3.37
2023-05-11T19:47:02.420Z,4.12
2023-05-11T19:49:40.439Z,4.45
2023-05-11T19:52:19.998Z,3.50
2023-05-11T19:54:56.183Z,4.80
2023-05-11T19:57:33.285Z,5.25
2023-05-11T20:03:28.850Z,4.90
2023-05-11T20:06:46.932Z,4.67
2023-05-11T20:09:48.128Z,4.62
2023-05-11T20:12:41.152Z,3.45
2023-05-11T20:15:17.262Z,4.37
2023-05-11T20:17:54.084Z,4.15
2023-05-11T20:20:49.411Z,5.17
2023-05-11T20:23:26.071Z,5.58
2023-05-11T20:26:03.221Z,4.95
2023-05-11T20:28:37.215Z,4.87
2023-05-11T20:31:15.556Z,5.55
2023-05-11T20:36:34.364Z,5.42
2023-05-11T20:39:11.327Z,5.60
2023-05-11T20:41:54.942Z,5.37
2023-05-11T20:44:34.275Z,5.33
2023-05-11T20:47:16.458Z,5.15
2023-05-11T20:49:50.247Z,5.03
2023-05-11T20:52:25.905Z,5.83
2023-05-11T20:54:59.530Z,5.62
2023-05-11T20:57:48.103Z,5.50
2023-05-11T21:03:50.664Z,4.62
2023-05-11T21:06:25.236Z,4.87
2023-05-11T21:08:58.601Z,3.90
2023-05-11T21:11:32.137Z,4.87
2023-05-11T21:14:05.880Z,3.90
2023-05-11T21:16:39.361Z,3.98
2023-05-11T21:19:16.993Z,3.98
2023-05-11T21:21:50.595Z,4.15
2023-05-11T21:24:25.037Z,4.47
2023-05-11T21:27:03.295Z,3.98
2023-05-11T21:29:39.504Z,4.33
2023-05-11T21:32:13.232Z,3.83
2023-05-11T21:34:46.883Z,3.92
2023-05-11T21:37:21.439Z,3.22
2023-05-11T21:39:55.346Z,3.65
2023-05-11T21:42:31.081Z,3.75
2023-05-11T21:45:05.100Z,3.90
2023-05-11T21:47:38.313Z,3.60
2023-05-11T21:50:16.224Z,3.60
2023-05-11T21:55:35.039Z,4.37
2023-05-11T21:58:18.914Z,4.95
2023-05-11T22:00:52.420Z,5.22
2023-05-11T22:03:27.807Z,5.58
2023-05-11T22:06:01.653Z,4.83
2023-05-11T22:08:39.309Z,5.00
2023-05-11T22:11:12.606Z,5.25
2023-05-11T22:13:46.431Z,4.97
2023-05-11T22:16:20.106Z,4.33
2023-05-11T22:18:53.730Z,4.97
2023-05-11T22:21:29.715Z,4.22
2023-05-11T22:24:04.416Z,4.80
2023-05-11T22:26:43.666Z,4.33
2023-05-11T22:29:22.928Z,5.28
2023-05-11T22:31:57.628Z,4.58
2023-05-11T22:34:31.230Z,4.17
2023-05-11T22:37:05.428Z,4.85
2023-05-11T22:39:40.196Z,3.15
2023-05-11T22:42:16.417Z,4.12
2023-05-11T22:44:49.980Z,4.03
2023-05-11T22:47:23.817Z,3.90
2023-05-11T22:50:01.890Z,4.17
2023-05-11T22:52:37.850Z,4.20
2023-05-11T22:55:12.569Z,4.17
2023-05-11T22:57:45.954Z,5.65
2023-05-11T23:00:21.512Z,4.12
2023-05-11T23:02:55.336Z,4.45
2023-05-11T23:05:28.906Z,4.58
2023-05-11T23:08:04.590Z,4.58
2023-05-11T23:10:38.402Z,4.50
2023-05-11T23:13:12.980Z,4.25
2023-05-11T23:15:46.878Z,4.17
2023-05-11T23:22:21.497Z,4.20
2023-05-11T23:24:56.538Z,4.50
2023-05-11T23:27:29.937Z,4.35
2023-05-11T23:30:05.195Z,3.90
2023-05-11T23:32:39.130Z,5.37
2023-05-11T23:35:13.089Z,4.90
2023-05-11T23:37:46.498Z,4.50
2023-05-11T23:40:19.979Z,3.85
2023-05-11T23:42:53.514Z,4.10
2023-05-11T23:45:37.520Z,4.40
2023-05-11T23:49:04.576Z,4.30
2023-05-11T23:55:21.320Z,4.35
2023-05-11T23:58:01.169Z,3.92
